Talladega, Alabama
Current Conditions -  °F | °C
As of 3:35 PM on Wednesday 17 Dec 2014 (Local Time) from KASN Reporting Station
Scattered Clouds Scattered Clouds  
Wind Chill: 46°   Ceiling: Unl
Heat Index: 48°   Visibility: 10mi
Dew Point: 37°   Wind: 5mph
Humidity: 68%   Direction: 340°NNW
Pressure: 30.2"   Gusts: NA
Location:  33.43°N, 86.1°W
Report Text: KASN 172135Z AUTO 34004KT 10SM SCT021 09/03 A3020 RMK AO2 T00870030
Loading
Personal Weather Stations






























Interactive Weather Map New forecast layout! Learn more

10-Day Weather Forecast

Advertisements
Track Severe Weather on mobile